sensor_id;sensor_type;location;lat;lon;timestamp;pressure;altitude;pressure_sealevel;temperature;humidity
75063;BME280;63981;51.052;13.754;2023-09-12T00:01:18;100054.56;;;18.90;80.90
75063;BME280;63981;51.052;13.754;2023-09-12T00:03:44;100060.59;;;18.92;80.30
75063;BME280;63981;51.052;13.754;2023-09-12T00:06:10;100052.34;;;18.85;80.95
75063;BME280;63981;51.052;13.754;2023-09-12T00:08:36;100056.56;;;18.88;80.91
75063;BME280;63981;51.052;13.754;2023-09-12T00:11:07;100065.56;;;18.87;80.65
75063;BME280;63981;51.052;13.754;2023-09-12T00:13:36;100060.38;;;18.85;80.55
75063;BME280;63981;51.052;13.754;2023-09-12T00:16:03;100067.53;;;18.85;80.20
75063;BME280;63981;51.052;13.754;2023-09-12T00:18:29;100067.88;;;18.82;80.38
75063;BME280;63981;51.052;13.754;2023-09-12T00:20:55;100062.03;;;18.78;80.65
75063;BME280;63981;51.052;13.754;2023-09-12T00:23:21;100061.47;;;18.75;80.48
75063;BME280;63981;51.052;13.754;2023-09-12T00:25:50;100064.47;;;18.72;80.48
75063;BME280;63981;51.052;13.754;2023-09-12T00:28:18;100062.97;;;18.69;81.23
75063;BME280;63981;51.052;13.754;2023-09-12T00:30:44;100064.94;;;18.67;80.58
75063;BME280;63981;51.052;13.754;2023-09-12T00:33:10;100056.25;;;18.65;80.79
75063;BME280;63981;51.052;13.754;2023-09-12T00:35:36;100058.09;;;18.65;80.96
75063;BME280;63981;51.052;13.754;2023-09-12T00:38:02;100060.91;;;18.63;81.27
75063;BME280;63981;51.052;13.754;2023-09-12T00:40:29;100057.00;;;18.57;80.96
75063;BME280;63981;51.052;13.754;2023-09-12T00:42:55;100050.81;;;18.57;80.65
75063;BME280;63981;51.052;13.754;2023-09-12T00:45:21;100049.00;;;18.57;81.37
75063;BME280;63981;51.052;13.754;2023-09-12T00:47:48;100055.66;;;18.53;80.59
75063;BME280;63981;51.052;13.754;2023-09-12T00:50:16;100054.16;;;18.51;80.83
75063;BME280;63981;51.052;13.754;2023-09-12T00:52:43;100057.09;;;18.48;81.05
75063;BME280;63981;51.052;13.754;2023-09-12T00:55:09;100060.94;;;18.45;80.85
75063;BME280;63981;51.052;13.754;2023-09-12T00:57:35;100060.56;;;18.40;81.23
75063;BME280;63981;51.052;13.754;2023-09-12T01:00:03;100063.41;;;18.39;81.61
75063;BME280;63981;51.052;13.754;2023-09-12T01:02:39;100057.81;;;18.32;81.30
75063;BME280;63981;51.052;13.754;2023-09-12T01:05:07;100065.16;;;18.30;81.04
75063;BME280;63981;51.052;13.754;2023-09-12T01:07:34;100063.63;;;18.27;81.96
75063;BME280;63981;51.052;13.754;2023-09-12T01:10:01;100059.28;;;18.26;82.06
75063;BME280;63981;51.052;13.754;2023-09-12T01:12:29;100065.47;;;18.27;81.58
75063;BME280;63981;51.052;13.754;2023-09-12T01:14:55;100043.69;;;18.14;81.49
75063;BME280;63981;51.052;13.754;2023-09-12T01:17:22;100057.06;;;18.22;82.16
75063;BME280;63981;51.052;13.754;2023-09-12T01:19:48;100070.41;;;18.22;81.62
75063;BME280;63981;51.052;13.754;2023-09-12T01:22:26;100061.22;;;18.16;81.92
75063;BME280;63981;51.052;13.754;2023-09-12T01:27:35;100069.97;;;18.09;82.06
75063;BME280;63981;51.052;13.754;2023-09-12T01:30:05;100070.81;;;18.09;81.65
75063;BME280;63981;51.052;13.754;2023-09-12T01:32:32;100066.63;;;18.07;81.87
75063;BME280;63981;51.052;13.754;2023-09-12T01:34:59;100069.28;;;18.07;81.89
75063;BME280;63981;51.052;13.754;2023-09-12T01:37:26;100062.91;;;18.00;82.43
75063;BME280;63981;51.052;13.754;2023-09-12T01:39:52;100060.91;;;18.02;81.40
75063;BME280;63981;51.052;13.754;2023-09-12T01:42:20;100067.56;;;17.97;81.55
75063;BME280;63981;51.052;13.754;2023-09-12T01:44:50;100068.69;;;17.95;82.42
75063;BME280;63981;51.052;13.754;2023-09-12T01:47:17;100074.31;;;17.92;82.56
75063;BME280;63981;51.052;13.754;2023-09-12T01:49:49;100064.81;;;17.89;83.32
75063;BME280;63981;51.052;13.754;2023-09-12T01:52:16;100063.44;;;17.85;82.83
75063;BME280;63981;51.052;13.754;2023-09-12T01:54:44;100069.91;;;17.83;83.52
75063;BME280;63981;51.052;13.754;2023-09-12T01:57:10;100070.34;;;17.78;82.86
75063;BME280;63981;51.052;13.754;2023-09-12T01:59:37;100067.00;;;17.76;83.28
75063;BME280;63981;51.052;13.754;2023-09-12T02:02:03;100062.00;;;17.73;83.90
75063;BME280;63981;51.052;13.754;2023-09-12T02:04:29;100070.00;;;17.73;84.39
75063;BME280;63981;51.052;13.754;2023-09-12T02:06:55;100080.22;;;17.68;84.17
75063;BME280;63981;51.052;13.754;2023-09-12T02:09:21;100057.56;;;17.54;85.02
75063;BME280;63981;51.052;13.754;2023-09-12T02:11:48;100063.22;;;17.51;85.22
75063;BME280;63981;51.052;13.754;2023-09-12T02:14:14;100067.50;;;17.62;85.21
75063;BME280;63981;51.052;13.754;2023-09-12T02:16:40;100078.31;;;17.60;84.72
75063;BME280;63981;51.052;13.754;2023-09-12T02:19:07;100073.13;;;17.59;85.10
75063;BME280;63981;51.052;13.754;2023-09-12T02:21:33;100077.75;;;17.57;84.17
75063;BME280;63981;51.052;13.754;2023-09-12T02:23:59;100068.41;;;17.53;84.51
75063;BME280;63981;51.052;13.754;2023-09-12T02:26:25;100069.53;;;17.50;84.46
75063;BME280;63981;51.052;13.754;2023-09-12T02:28:51;100075.31;;;17.46;84.22
75063;BME280;63981;51.052;13.754;2023-09-12T02:31:17;100072.94;;;17.43;84.28
75063;BME280;63981;51.052;13.754;2023-09-12T02:33:45;100074.91;;;17.40;84.56
75063;BME280;63981;51.052;13.754;2023-09-12T02:36:11;100077.72;;;17.39;84.42
75063;BME280;63981;51.052;13.754;2023-09-12T02:38:37;100078.72;;;17.38;83.62
75063;BME280;63981;51.052;13.754;2023-09-12T02:41:03;100077.03;;;17.37;82.94
75063;BME280;63981;51.052;13.754;2023-09-12T02:43:29;100077.19;;;17.35;83.69
75063;BME280;63981;51.052;13.754;2023-09-12T02:45:56;100076.22;;;17.36;83.35
75063;BME280;63981;51.052;13.754;2023-09-12T02:48:22;100088.00;;;17.34;83.46
75063;BME280;63981;51.052;13.754;2023-09-12T02:50:48;100080.28;;;17.31;83.43
75063;BME280;63981;51.052;13.754;2023-09-12T02:53:14;100082.41;;;17.27;82.87
75063;BME280;63981;51.052;13.754;2023-09-12T02:55:41;100082.03;;;17.22;83.56
75063;BME280;63981;51.052;13.754;2023-09-12T02:58:09;100081.34;;;17.20;83.62
75063;BME280;63981;51.052;13.754;2023-09-12T03:00:39;100074.91;;;17.13;83.62
75063;BME280;63981;51.052;13.754;2023-09-12T03:03:07;100081.09;;;17.14;84.30
75063;BME280;63981;51.052;13.754;2023-09-12T03:05:35;100071.88;;;17.08;84.65
75063;BME280;63981;51.052;13.754;2023-09-12T03:08:02;100084.06;;;17.10;84.04
75063;BME280;63981;51.052;13.754;2023-09-12T03:10:29;100083.50;;;17.07;84.88
75063;BME280;63981;51.052;13.754;2023-09-12T03:12:55;100073.13;;;17.04;84.36
75063;BME280;63981;51.052;13.754;2023-09-12T03:15:22;100075.41;;;16.99;85.06
75063;BME280;63981;51.052;13.754;2023-09-12T03:17:48;100077.75;;;17.02;85.11
75063;BME280;63981;51.052;13.754;2023-09-12T03:20:14;100076.09;;;17.01;85.22
75063;BME280;63981;51.052;13.754;2023-09-12T03:22:40;100073.13;;;17.04;85.24
75063;BME280;63981;51.052;13.754;2023-09-12T03:25:07;100072.44;;;17.02;85.23
75063;BME280;63981;51.052;13.754;2023-09-12T03:27:33;100071.91;;;16.98;85.91
75063;BME280;63981;51.052;13.754;2023-09-12T03:29:59;100070.22;;;16.97;85.46
75063;BME280;63981;51.052;13.754;2023-09-12T03:32:25;100069.69;;;16.94;85.23
75063;BME280;63981;51.052;13.754;2023-09-12T03:34:51;100063.94;;;16.89;85.57
75063;BME280;63981;51.052;13.754;2023-09-12T03:37:17;100064.63;;;16.91;86.32
75063;BME280;63981;51.052;13.754;2023-09-12T03:39:45;100072.91;;;16.88;85.62
75063;BME280;63981;51.052;13.754;2023-09-12T03:42:11;100071.25;;;16.87;85.71
75063;BME280;63981;51.052;13.754;2023-09-12T03:44:37;100068.72;;;16.85;86.01
75063;BME280;63981;51.052;13.754;2023-09-12T03:47:03;100063.00;;;16.80;85.70
75063;BME280;63981;51.052;13.754;2023-09-12T03:49:30;100062.88;;;16.82;86.17
75063;BME280;63981;51.052;13.754;2023-09-12T03:51:56;100063.97;;;16.79;86.36
75063;BME280;63981;51.052;13.754;2023-09-12T03:54:22;100064.25;;;16.76;86.30
75063;BME280;63981;51.052;13.754;2023-09-12T03:56:49;100059.25;;;16.73;86.29
75063;BME280;63981;51.052;13.754;2023-09-12T03:59:15;100059.69;;;16.68;86.76
75063;BME280;63981;51.052;13.754;2023-09-12T04:01:41;100063.72;;;16.63;86.69
75063;BME280;63981;51.052;13.754;2023-09-12T04:04:07;100065.84;;;16.59;86.91
75063;BME280;63981;51.052;13.754;2023-09-12T04:06:33;100064.44;;;16.55;87.09
75063;BME280;63981;51.052;13.754;2023-09-12T04:08:59;100074.81;;;16.58;86.94
75063;BME280;63981;51.052;13.754;2023-09-12T04:11:25;100073.81;;;16.59;86.67
75063;BME280;63981;51.052;13.754;2023-09-12T04:13:51;100067.50;;;16.60;86.56
75063;BME280;63981;51.052;13.754;2023-09-12T04:16:17;100078.00;;;16.62;86.34
75063;BME280;63981;51.052;13.754;2023-09-12T04:18:44;100072.13;;;16.58;86.64
75063;BME280;63981;51.052;13.754;2023-09-12T04:21:10;100069.63;;;16.57;86.03
75063;BME280;63981;51.052;13.754;2023-09-12T04:23:36;100062.88;;;16.52;86.41
75063;BME280;63981;51.052;13.754;2023-09-12T04:26:03;100072.13;;;16.58;86.42
75063;BME280;63981;51.052;13.754;2023-09-12T04:28:29;100076.78;;;16.56;86.65
75063;BME280;63981;51.052;13.754;2023-09-12T04:31:05;100074.53;;;16.51;86.35
75063;BME280;63981;51.052;13.754;2023-09-12T04:33:31;100066.28;;;16.45;86.24
75063;BME280;63981;51.052;13.754;2023-09-12T04:36:00;100076.19;;;16.52;87.45
75063;BME280;63981;51.052;13.754;2023-09-12T04:38:26;100066.81;;;16.48;86.86
75063;BME280;63981;51.052;13.754;2023-09-12T04:40:54;100063.34;;;16.48;86.71
75063;BME280;63981;51.052;13.754;2023-09-12T04:43:20;100066.81;;;16.58;86.89
75063;BME280;63981;51.052;13.754;2023-09-12T04:45:46;100072.97;;;16.59;86.92
75063;BME280;63981;51.052;13.754;2023-09-12T04:48:12;100071.84;;;16.61;86.52
75063;BME280;63981;51.052;13.754;2023-09-12T04:50:42;100066.06;;;16.66;86.22
75063;BME280;63981;51.052;13.754;2023-09-12T04:53:10;100066.84;;;16.68;85.71
75063;BME280;63981;51.052;13.754;2023-09-12T04:55:37;100069.88;;;16.73;85.44
75063;BME280;63981;51.052;13.754;2023-09-12T04:58:04;100067.38;;;16.71;85.61
75063;BME280;63981;51.052;13.754;2023-09-12T05:00:32;100069.56;;;16.66;86.12
75063;BME280;63981;51.052;13.754;2023-09-12T05:03:02;100070.84;;;16.62;85.46
75063;BME280;63981;51.052;13.754;2023-09-12T05:05:30;100063.03;;;16.61;85.69
75063;BME280;63981;51.052;13.754;2023-09-12T05:07:56;100070.47;;;16.57;85.68
75063;BME280;63981;51.052;13.754;2023-09-12T05:10:30;100074.22;;;16.64;85.56
75063;BME280;63981;51.052;13.754;2023-09-12T05:12:57;100073.38;;;16.73;85.99
75063;BME280;63981;51.052;13.754;2023-09-12T05:15:23;100059.09;;;16.74;85.78
75063;BME280;63981;51.052;13.754;2023-09-12T05:17:49;100073.38;;;16.83;85.23
75063;BME280;63981;51.052;13.754;2023-09-12T05:20:16;100068.19;;;16.82;85.12
75063;BME280;63981;51.052;13.754;2023-09-12T05:22:42;100076.56;;;16.87;84.87
75063;BME280;63981;51.052;13.754;2023-09-12T05:25:08;100076.56;;;16.87;84.57
75063;BME280;63981;51.052;13.754;2023-09-12T05:27:34;100074.88;;;16.86;84.60
75063;BME280;63981;51.052;13.754;2023-09-12T05:30:01;100071.25;;;16.77;85.06
75063;BME280;63981;51.052;13.754;2023-09-12T05:32:28;100069.88;;;16.73;85.08
75063;BME280;63981;51.052;13.754;2023-09-12T05:34:54;100075.50;;;16.70;85.42
75063;BME280;63981;51.052;13.754;2023-09-12T05:37:21;100084.63;;;16.67;84.88
75063;BME280;63981;51.052;13.754;2023-09-12T05:39:47;100085.84;;;16.63;85.28
75063;BME280;63981;51.052;13.754;2023-09-12T05:42:13;100081.50;;;16.62;86.22
75063;BME280;63981;51.052;13.754;2023-09-12T05:44:41;100085.84;;;16.63;85.90
75063;BME280;63981;51.052;13.754;2023-09-12T05:47:08;100082.88;;;16.66;85.52
75063;BME280;63981;51.052;13.754;2023-09-12T05:49:34;100076.63;;;16.67;85.83
75063;BME280;63981;51.052;13.754;2023-09-12T05:52:00;100082.34;;;16.72;85.25
75063;BME280;63981;51.052;13.754;2023-09-12T05:54:27;100088.38;;;16.74;86.10
75063;BME280;63981;51.052;13.754;2023-09-12T05:56:53;100084.56;;;16.77;85.78
75063;BME280;63981;51.052;13.754;2023-09-12T05:59:19;100093.13;;;16.80;85.25
75063;BME280;63981;51.052;13.754;2023-09-12T06:01:45;100101.22;;;16.89;85.50
75063;BME280;63981;51.052;13.754;2023-09-12T06:04:12;100097.84;;;16.96;84.81
75063;BME280;63981;51.052;13.754;2023-09-12T06:06:38;100109.44;;;17.05;84.61
75063;BME280;63981;51.052;13.754;2023-09-12T06:09:04;100100.56;;;17.14;84.10
75063;BME280;63981;51.052;13.754;2023-09-12T06:11:31;100102.34;;;17.23;84.01
75063;BME280;63981;51.052;13.754;2023-09-12T06:13:57;100100.50;;;17.33;83.38
75063;BME280;63981;51.052;13.754;2023-09-12T06:16:23;100098.75;;;17.42;83.04
75063;BME280;63981;51.052;13.754;2023-09-12T06:18:49;100105.13;;;17.59;82.61
75063;BME280;63981;51.052;13.754;2023-09-12T06:21:16;100104.50;;;17.75;81.83
75063;BME280;63981;51.052;13.754;2023-09-12T06:23:42;100102.16;;;17.89;81.53
75063;BME280;63981;51.052;13.754;2023-09-12T06:26:08;100100.94;;;18.02;80.67
75063;BME280;63981;51.052;13.754;2023-09-12T06:28:34;100099.72;;;18.14;79.94
75063;BME280;63981;51.052;13.754;2023-09-12T06:31:00;100110.00;;;18.26;79.42
75063;BME280;63981;51.052;13.754;2023-09-12T06:33:26;100113.56;;;18.35;79.27
75063;BME280;63981;51.052;13.754;2023-09-12T06:35:52;100110.66;;;18.46;78.43
75063;BME280;63981;51.052;13.754;2023-09-12T06:38:19;100109.72;;;18.55;77.82
75063;BME280;63981;51.052;13.754;2023-09-12T06:40:46;100114.03;;;18.74;77.18
75063;BME280;63981;51.052;13.754;2023-09-12T06:43:13;100114.63;;;18.86;76.60
75063;BME280;63981;51.052;13.754;2023-09-12T06:45:40;100112.22;;;19.01;75.95
75063;BME280;63981;51.052;13.754;2023-09-12T06:48:06;100103.75;;;19.13;75.14
75063;BME280;63981;51.052;13.754;2023-09-12T06:50:34;100111.50;;;19.25;74.96
75063;BME280;63981;51.052;13.754;2023-09-12T06:53:00;100110.22;;;19.37;74.05
75063;BME280;63981;51.052;13.754;2023-09-12T06:55:27;100123.53;;;19.55;73.12
75063;BME280;63981;51.052;13.754;2023-09-12T06:57:53;100112.06;;;19.70;73.20
75063;BME280;63981;51.052;13.754;2023-09-12T07:00:19;100117.78;;;19.84;72.16
75063;BME280;63981;51.052;13.754;2023-09-12T07:02:45;100116.63;;;19.94;71.58
75063;BME280;63981;51.052;13.754;2023-09-12T07:05:12;100110.78;;;20.07;71.36
75063;BME280;63981;51.052;13.754;2023-09-12T07:07:38;100109.47;;;20.27;71.27
75063;BME280;63981;51.052;13.754;2023-09-12T07:10:04;100111.34;;;20.51;70.42
75063;BME280;63981;51.052;13.754;2023-09-12T07:12:32;100103.28;;;20.76;69.90
75063;BME280;63981;51.052;13.754;2023-09-12T07:14:58;100112.75;;;21.03;68.41
75063;BME280;63981;51.052;13.754;2023-09-12T07:17:27;100100.16;;;21.28;68.69
75063;BME280;63981;51.052;13.754;2023-09-12T07:19:53;100110.41;;;21.55;66.41
75063;BME280;63981;51.052;13.754;2023-09-12T07:22:19;100116.50;;;21.80;65.03
75063;BME280;63981;51.052;13.754;2023-09-12T07:24:45;100104.63;;;21.97;63.69
75063;BME280;63981;51.052;13.754;2023-09-12T07:27:11;100107.06;;;22.15;63.53
75063;BME280;63981;51.052;13.754;2023-09-12T07:29:38;100104.06;;;22.33;61.76
75063;BME280;63981;51.052;13.754;2023-09-12T07:32:04;100109.41;;;22.56;62.45
75063;BME280;63981;51.052;13.754;2023-09-12T07:34:30;100106.19;;;22.75;61.70
75063;BME280;63981;51.052;13.754;2023-09-12T07:36:56;100102.47;;;22.99;60.85
75063;BME280;63981;51.052;13.754;2023-09-12T07:39:23;100089.47;;;23.17;61.36
75063;BME280;63981;51.052;13.754;2023-09-12T07:41:49;100097.16;;;23.50;59.84
75063;BME280;63981;51.052;13.754;2023-09-12T07:44:15;100098.25;;;23.70;59.95
75063;BME280;63981;51.052;13.754;2023-09-12T07:46:43;100100.78;;;23.93;58.58
75063;BME280;63981;51.052;13.754;2023-09-12T07:49:09;100098.09;;;24.15;57.58
75063;BME280;63981;51.052;13.754;2023-09-12T07:51:35;100104.00;;;24.25;57.42
75063;BME280;63981;51.052;13.754;2023-09-12T07:54:02;100102.84;;;24.34;56.77
75063;BME280;63981;51.052;13.754;2023-09-12T07:56:28;100097.13;;;24.65;56.32
75063;BME280;63981;51.052;13.754;2023-09-12T07:58:57;100101.22;;;24.89;54.75
75063;BME280;63981;51.052;13.754;2023-09-12T08:01:23;100098.56;;;24.95;54.41
75063;BME280;63981;51.052;13.754;2023-09-12T08:03:51;100103.22;;;25.02;53.95
75063;BME280;63981;51.052;13.754;2023-09-12T08:06:17;100098.53;;;25.17;52.82
75063;BME280;63981;51.052;13.754;2023-09-12T08:08:43;100099.00;;;25.27;52.81
75063;BME280;63981;51.052;13.754;2023-09-12T08:11:10;100091.81;;;25.47;52.49
75063;BME280;63981;51.052;13.754;2023-09-12T08:13:36;100097.13;;;25.75;51.24
75063;BME280;63981;51.052;13.754;2023-09-12T08:16:05;100095.09;;;25.84;50.85
75063;BME280;63981;51.052;13.754;2023-09-12T08:18:31;100096.78;;;25.92;50.69
75063;BME280;63981;51.052;13.754;2023-09-12T08:20:57;100085.78;;;26.26;50.92
75063;BME280;63981;51.052;13.754;2023-09-12T08:23:23;100094.78;;;26.60;51.27
75063;BME280;63981;51.052;13.754;2023-09-12T08:25:49;100106.19;;;26.82;49.50
75063;BME280;63981;51.052;13.754;2023-09-12T08:28:15;100098.03;;;26.95;49.15
75063;BME280;63981;51.052;13.754;2023-09-12T08:30:44;100091.19;;;27.12;48.65
75063;BME280;63981;51.052;13.754;2023-09-12T08:33:10;100099.91;;;27.14;48.06
75063;BME280;63981;51.052;13.754;2023-09-12T08:35:36;100101.97;;;27.25;48.14
75063;BME280;63981;51.052;13.754;2023-09-12T08:38:02;100103.59;;;27.33;47.24
75063;BME280;63981;51.052;13.754;2023-09-12T08:40:28;100107.72;;;27.49;45.34
75063;BME280;63981;51.052;13.754;2023-09-12T08:42:57;100106.16;;;27.73;45.85
75063;BME280;63981;51.052;13.754;2023-09-12T08:45:23;100105.94;;;27.81;46.88
75063;BME280;63981;51.052;13.754;2023-09-12T08:47:52;100110.22;;;27.95;46.67
75063;BME280;63981;51.052;13.754;2023-09-12T08:50:20;100099.53;;;28.07;45.12
75063;BME280;63981;51.052;13.754;2023-09-12T08:52:47;100099.91;;;28.10;45.19
75063;BME280;63981;51.052;13.754;2023-09-12T08:55:13;100094.31;;;28.05;45.58
75063;BME280;63981;51.052;13.754;2023-09-12T08:57:43;100102.31;;;27.94;45.89
75063;BME280;63981;51.052;13.754;2023-09-12T09:00:11;100094.16;;;28.00;45.47
75063;BME280;63981;51.052;13.754;2023-09-12T09:02:41;100096.06;;;27.93;45.62
75063;BME280;63981;51.052;13.754;2023-09-12T09:05:10;100090.25;;;27.89;45.23
75063;BME280;63981;51.052;13.754;2023-09-12T09:07:38;100090.88;;;27.85;43.48
75063;BME280;63981;51.052;13.754;2023-09-12T09:10:06;100085.06;;;27.88;43.59
75063;BME280;63981;51.052;13.754;2023-09-12T09:12:34;100086.63;;;28.02;42.72
75063;BME280;63981;51.052;13.754;2023-09-12T09:15:19;100083.72;;;27.97;42.84
75063;BME280;63981;51.052;13.754;2023-09-12T09:17:46;100075.75;;;27.71;43.08
75063;BME280;63981;51.052;13.754;2023-09-12T09:20:26;100078.13;;;27.47;43.66
75063;BME280;63981;51.052;13.754;2023-09-12T09:23:04;100077.13;;;27.48;44.59
75063;BME280;63981;51.052;13.754;2023-09-12T09:25:32;100070.00;;;27.54;44.53
75063;BME280;63981;51.052;13.754;2023-09-12T09:28:02;100078.06;;;27.74;46.13
75063;BME280;63981;51.052;13.754;2023-09-12T09:30:42;100066.25;;;27.93;44.31
75063;BME280;63981;51.052;13.754;2023-09-12T09:33:09;100072.13;;;28.46;44.25
75063;BME280;63981;51.052;13.754;2023-09-12T09:35:36;100063.00;;;28.84;44.47
75063;BME280;63981;51.052;13.754;2023-09-12T09:38:04;100068.25;;;29.22;43.30
75063;BME280;63981;51.052;13.754;2023-09-12T09:40:32;100064.53;;;29.53;43.25
75063;BME280;63981;51.052;13.754;2023-09-12T09:43:02;100066.38;;;30.01;42.26
75063;BME280;63981;51.052;13.754;2023-09-12T09:45:30;100057.59;;;30.29;40.13
75063;BME280;63981;51.052;13.754;2023-09-12T09:48:05;100057.03;;;30.86;38.88
75063;BME280;63981;51.052;13.754;2023-09-12T09:50:35;100051.78;;;31.31;36.74
75063;BME280;63981;51.052;13.754;2023-09-12T09:53:04;100049.66;;;31.61;37.23
75063;BME280;63981;51.052;13.754;2023-09-12T09:55:34;100054.72;;;31.98;34.20
75063;BME280;63981;51.052;13.754;2023-09-12T09:58:00;100049.78;;;32.12;34.63
75063;BME280;63981;51.052;13.754;2023-09-12T10:00:28;100052.25;;;31.96;34.61
75063;BME280;63981;51.052;13.754;2023-09-12T10:02:55;100050.16;;;32.32;32.30
75063;BME280;63981;51.052;13.754;2023-09-12T10:05:22;100046.44;;;32.77;31.32
75063;BME280;63981;51.052;13.754;2023-09-12T10:07:49;100049.31;;;33.26;31.98
75063;BME280;63981;51.052;13.754;2023-09-12T10:10:19;100049.44;;;33.14;32.36
75063;BME280;63981;51.052;13.754;2023-09-12T10:12:49;100053.53;;;32.56;32.91
75063;BME280;63981;51.052;13.754;2023-09-12T10:15:19;100054.22;;;32.30;32.15
75063;BME280;63981;51.052;13.754;2023-09-12T10:17:47;100046.59;;;32.32;31.21
75063;BME280;63981;51.052;13.754;2023-09-12T10:20:21;100060.28;;;32.53;32.74
75063;BME280;63981;51.052;13.754;2023-09-12T10:23:00;100056.09;;;33.01;31.88
75063;BME280;63981;51.052;13.754;2023-09-12T10:25:29;100053.84;;;33.37;28.56
75063;BME280;63981;51.052;13.754;2023-09-12T10:27:55;100053.50;;;33.55;28.19
75063;BME280;63981;51.052;13.754;2023-09-12T10:30:22;100054.72;;;33.42;29.56
75063;BME280;63981;51.052;13.754;2023-09-12T10:32:49;100053.03;;;34.17;28.69
75063;BME280;63981;51.052;13.754;2023-09-12T10:35:16;100049.97;;;34.83;25.96
75063;BME280;63981;51.052;13.754;2023-09-12T10:37:44;100058.19;;;35.30;26.91
75063;BME280;63981;51.052;13.754;2023-09-12T10:40:12;100055.16;;;35.32;26.44
75063;BME280;63981;51.052;13.754;2023-09-12T10:42:39;100049.63;;;35.22;28.04
75063;BME280;63981;51.052;13.754;2023-09-12T10:45:06;100056.72;;;35.12;26.99
75063;BME280;63981;51.052;13.754;2023-09-12T10:47:36;100057.25;;;35.04;27.35
75063;BME280;63981;51.052;13.754;2023-09-12T10:50:02;100043.03;;;34.70;27.47
75063;BME280;63981;51.052;13.754;2023-09-12T10:52:29;100044.31;;;34.95;27.65
75063;BME280;63981;51.052;13.754;2023-09-12T10:54:56;100042.41;;;34.95;27.67
75063;BME280;63981;51.052;13.754;2023-09-12T10:57:22;100029.34;;;35.23;28.52
75063;BME280;63981;51.052;13.754;2023-09-12T11:02:32;100045.28;;;35.31;27.56
75063;BME280;63981;51.052;13.754;2023-09-12T11:05:06;100037.19;;;35.76;28.33
75063;BME280;63981;51.052;13.754;2023-09-12T11:12:54;100039.72;;;36.19;27.62
75063;BME280;63981;51.052;13.754;2023-09-12T11:15:22;100040.00;;;36.48;27.19
75063;BME280;63981;51.052;13.754;2023-09-12T11:17:49;100026.47;;;37.52;26.11
75063;BME280;63981;51.052;13.754;2023-09-12T11:20:25;100034.53;;;38.21;25.84
75063;BME280;63981;51.052;13.754;2023-09-12T11:22:51;100025.09;;;38.27;25.65
75063;BME280;63981;51.052;13.754;2023-09-12T11:25:25;100019.50;;;39.14;25.26
75063;BME280;63981;51.052;13.754;2023-09-12T11:30:24;100011.66;;;40.62;22.69
75063;BME280;63981;51.052;13.754;2023-09-12T11:32:52;100003.69;;;41.15;21.56
75063;BME280;63981;51.052;13.754;2023-09-12T11:35:23;99996.13;;;42.02;21.12
75063;BME280;63981;51.052;13.754;2023-09-12T11:37:50;100003.09;;;41.54;20.48
75063;BME280;63981;51.052;13.754;2023-09-12T11:40:21;100004.44;;;41.57;20.43
75063;BME280;63981;51.052;13.754;2023-09-12T11:42:48;99999.34;;;42.18;21.34
75063;BME280;63981;51.052;13.754;2023-09-12T11:45:18;99997.41;;;41.73;20.21
75063;BME280;63981;51.052;13.754;2023-09-12T11:47:46;99992.59;;;41.43;20.97
75063;BME280;63981;51.052;13.754;2023-09-12T11:50:32;99983.28;;;42.28;20.06
75063;BME280;63981;51.052;13.754;2023-09-12T11:53:07;99980.31;;;42.95;18.54
75063;BME280;63981;51.052;13.754;2023-09-12T11:55:43;99979.25;;;43.83;19.30
75063;BME280;63981;51.052;13.754;2023-09-12T11:58:11;99982.25;;;44.25;18.35
75063;BME280;63981;51.052;13.754;2023-09-12T12:00:37;99977.44;;;43.52;17.59
75063;BME280;63981;51.052;13.754;2023-09-12T12:03:04;99977.09;;;43.89;16.08
75063;BME280;63981;51.052;13.754;2023-09-12T12:05:30;99973.88;;;44.42;16.99
75063;BME280;63981;51.052;13.754;2023-09-12T12:07:57;99978.94;;;44.40;16.92
75063;BME280;63981;51.052;13.754;2023-09-12T12:10:24;99976.81;;;44.37;16.89
75063;BME280;63981;51.052;13.754;2023-09-12T12:12:53;99963.03;;;44.49;16.74
75063;BME280;63981;51.052;13.754;2023-09-12T12:15:19;99958.38;;;45.00;15.83
75063;BME280;63981;51.052;13.754;2023-09-12T12:17:46;99964.13;;;44.65;15.98
75063;BME280;63981;51.052;13.754;2023-09-12T12:20:12;99972.56;;;44.78;16.99
75063;BME280;63981;51.052;13.754;2023-09-12T12:22:39;99962.03;;;44.54;16.80
75063;BME280;63981;51.052;13.754;2023-09-12T12:25:07;99963.13;;;44.70;17.34
75063;BME280;63981;51.052;13.754;2023-09-12T12:27:38;99962.22;;;44.57;16.26
75063;BME280;63981;51.052;13.754;2023-09-12T12:30:12;99957.19;;;44.80;15.64
75063;BME280;63981;51.052;13.754;2023-09-12T12:32:46;99956.19;;;44.76;16.46
75063;BME280;63981;51.052;13.754;2023-09-12T12:35:22;99959.84;;;44.30;15.85
75063;BME280;63981;51.052;13.754;2023-09-12T12:37:50;99953.75;;;44.45;15.16
75063;BME280;63981;51.052;13.754;2023-09-12T12:40:16;99947.06;;;43.73;15.93
75063;BME280;63981;51.052;13.754;2023-09-12T12:42:44;99947.31;;;44.06;16.60
75063;BME280;63981;51.052;13.754;2023-09-12T12:45:23;99943.72;;;44.06;15.68
75063;BME280;63981;51.052;13.754;2023-09-12T12:47:57;99942.16;;;44.34;17.16
75063;BME280;63981;51.052;13.754;2023-09-12T12:50:23;99939.06;;;43.46;16.55
75063;BME280;63981;51.052;13.754;2023-09-12T12:52:49;99935.03;;;42.69;16.85
75063;BME280;63981;51.052;13.754;2023-09-12T12:55:16;99939.34;;;41.82;19.50